sensor_id;sensor_type;location;lat;lon;timestamp;pressure;altitude;pressure_sealevel;temperature;humidity
42519;BME280;28147;47.520;18.920;2023-02-04T00:00:59;98116.50;;;5.22;75.30
42519;BME280;28147;47.520;18.920;2023-02-04T00:03:24;98113.84;;;5.28;74.87
42519;BME280;28147;47.520;18.920;2023-02-04T00:05:50;98094.22;;;4.98;76.07
42519;BME280;28147;47.520;18.920;2023-02-04T00:08:17;98095.63;;;5.13;76.08
42519;BME280;28147;47.520;18.920;2023-02-04T00:10:42;98100.72;;;5.08;76.13
42519;BME280;28147;47.520;18.920;2023-02-04T00:13:07;98097.84;;;5.03;76.29
42519;BME280;28147;47.520;18.920;2023-02-04T00:15:33;98092.81;;;4.95;76.68
42519;BME280;28147;47.520;18.920;2023-02-04T00:17:58;98101.34;;;5.04;76.59
42519;BME280;28147;47.520;18.920;2023-02-04T00:20:24;98112.25;;;5.21;76.15
42519;BME280;28147;47.520;18.920;2023-02-04T00:22:49;98107.78;;;5.28;75.35
42519;BME280;28147;47.520;18.920;2023-02-04T00:25:16;98102.72;;;5.20;75.92
42519;BME280;28147;47.520;18.920;2023-02-04T00:27:41;98116.28;;;5.30;75.29
42519;BME280;28147;47.520;18.920;2023-02-04T00:30:07;98118.78;;;5.11;76.20
42519;BME280;28147;47.520;18.920;2023-02-04T00:32:33;98114.66;;;5.29;75.21
42519;BME280;28147;47.520;18.920;2023-02-04T00:34:58;98120.56;;;5.31;74.97
42519;BME280;28147;47.520;18.920;2023-02-04T00:37:25;98120.75;;;5.29;74.72
42519;BME280;28147;47.520;18.920;2023-02-04T00:39:51;98111.03;;;5.23;75.35
42519;BME280;28147;47.520;18.920;2023-02-04T00:42:16;98127.25;;;5.33;74.78
42519;BME280;28147;47.520;18.920;2023-02-04T00:44:42;98124.41;;;5.28;75.15
42519;BME280;28147;47.520;18.920;2023-02-04T00:47:07;98115.50;;;5.16;75.35
42519;BME280;28147;47.520;18.920;2023-02-04T00:49:33;98121.59;;;5.23;74.74
42519;BME280;28147;47.520;18.920;2023-02-04T00:51:58;98113.69;;;5.17;75.24
42519;BME280;28147;47.520;18.920;2023-02-04T00:54:24;98113.44;;;5.31;74.75
42519;BME280;28147;47.520;18.920;2023-02-04T00:56:49;98117.53;;;5.27;74.74
42519;BME280;28147;47.520;18.920;2023-02-04T00:59:15;98117.50;;;5.34;74.29
42519;BME280;28147;47.520;18.920;2023-02-04T01:01:40;98114.97;;;5.66;73.20
42519;BME280;28147;47.520;18.920;2023-02-04T01:04:06;98112.00;;;5.42;73.22
42519;BME280;28147;47.520;18.920;2023-02-04T01:06:32;98112.19;;;5.54;73.57
42519;BME280;28147;47.520;18.920;2023-02-04T01:08:58;98113.00;;;5.41;73.62
42519;BME280;28147;47.520;18.920;2023-02-04T01:11:23;98100.25;;;5.38;73.63
42519;BME280;28147;47.520;18.920;2023-02-04T01:13:49;98106.34;;;5.32;74.20
42519;BME280;28147;47.520;18.920;2023-02-04T01:16:14;98092.91;;;5.40;74.06
42519;BME280;28147;47.520;18.920;2023-02-04T01:18:39;98088.03;;;5.37;73.98
42519;BME280;28147;47.520;18.920;2023-02-04T01:21:05;98087.41;;;5.48;73.64
42519;BME280;28147;47.520;18.920;2023-02-04T01:23:31;98082.59;;;5.25;74.51
42519;BME280;28147;47.520;18.920;2023-02-04T01:25:56;98075.88;;;5.43;73.80
42519;BME280;28147;47.520;18.920;2023-02-04T01:28:22;98073.28;;;5.23;74.51
42519;BME280;28147;47.520;18.920;2023-02-04T01:30:47;98062.44;;;5.44;73.67
42519;BME280;28147;47.520;18.920;2023-02-04T01:33:12;98059.81;;;5.37;73.96
42519;BME280;28147;47.520;18.920;2023-02-04T01:35:38;98060.03;;;5.36;74.05
42519;BME280;28147;47.520;18.920;2023-02-04T01:38:03;98056.44;;;5.24;74.62
42519;BME280;28147;47.520;18.920;2023-02-04T01:40:29;98052.28;;;5.41;73.88
42519;BME280;28147;47.520;18.920;2023-02-04T01:42:55;98053.91;;;5.49;73.38
42519;BME280;28147;47.520;18.920;2023-02-04T01:45:21;98054.13;;;5.41;73.83
42519;BME280;28147;47.520;18.920;2023-02-04T01:47:46;98042.13;;;5.45;73.58
42519;BME280;28147;47.520;18.920;2023-02-04T01:50:14;98052.28;;;5.41;73.42
42519;BME280;28147;47.520;18.920;2023-02-04T01:52:40;98059.06;;;5.30;73.72
42519;BME280;28147;47.520;18.920;2023-02-04T01:55:15;98058.97;;;5.50;73.08
42519;BME280;28147;47.520;18.920;2023-02-04T01:57:41;98049.88;;;5.40;73.39
42519;BME280;28147;47.520;18.920;2023-02-04T02:00:14;98052.28;;;5.41;73.12
42519;BME280;28147;47.520;18.920;2023-02-04T02:02:45;98044.22;;;5.36;73.27
42519;BME280;28147;47.520;18.920;2023-02-04T02:05:23;98040.28;;;5.45;72.71
42519;BME280;28147;47.520;18.920;2023-02-04T02:07:52;98046.28;;;5.27;73.48
42519;BME280;28147;47.520;18.920;2023-02-04T02:10:19;98048.84;;;5.47;72.86
42519;BME280;28147;47.520;18.920;2023-02-04T02:12:45;98062.97;;;5.66;72.64
42519;BME280;28147;47.520;18.920;2023-02-04T02:15:12;98058.56;;;5.53;72.80
42519;BME280;28147;47.520;18.920;2023-02-04T02:17:38;98060.66;;;5.31;73.59
42519;BME280;28147;47.520;18.920;2023-02-04T02:20:06;98064.69;;;5.34;73.48
42519;BME280;28147;47.520;18.920;2023-02-04T02:22:50;98056.59;;;5.29;73.87
42519;BME280;28147;47.520;18.920;2023-02-04T02:25:20;98064.69;;;5.41;73.86
42519;BME280;28147;47.520;18.920;2023-02-04T02:27:45;98067.16;;;5.29;73.69
42519;BME280;28147;47.520;18.920;2023-02-04T02:30:12;98070.56;;;5.49;73.52
42519;BME280;28147;47.520;18.920;2023-02-04T02:32:39;98068.34;;;5.46;73.45
42519;BME280;28147;47.520;18.920;2023-02-04T02:35:05;98071.16;;;5.45;73.15
42519;BME280;28147;47.520;18.920;2023-02-04T02:37:31;98080.66;;;5.59;72.71
42519;BME280;28147;47.520;18.920;2023-02-04T02:39:57;98072.72;;;5.66;72.42
42519;BME280;28147;47.520;18.920;2023-02-04T02:42:22;98077.00;;;5.60;72.70
42519;BME280;28147;47.520;18.920;2023-02-04T02:44:49;98071.56;;;5.48;73.21
42519;BME280;28147;47.520;18.920;2023-02-04T02:47:16;98080.03;;;5.64;72.88
42519;BME280;28147;47.520;18.920;2023-02-04T02:49:43;98071.31;;;5.63;72.86
42519;BME280;28147;47.520;18.920;2023-02-04T02:52:12;98072.38;;;5.49;73.07
42519;BME280;28147;47.520;18.920;2023-02-04T02:54:38;98070.91;;;5.59;73.24
42519;BME280;28147;47.520;18.920;2023-02-04T02:57:11;98068.53;;;5.45;73.34
42519;BME280;28147;47.520;18.920;2023-02-04T02:59:37;98062.59;;;5.63;72.72
42519;BME280;28147;47.520;18.920;2023-02-04T03:02:03;98073.47;;;5.79;72.41
42519;BME280;28147;47.520;18.920;2023-02-04T03:04:32;98061.75;;;5.69;72.76
42519;BME280;28147;47.520;18.920;2023-02-04T03:06:59;98059.25;;;5.80;72.73
42519;BME280;28147;47.520;18.920;2023-02-04T03:09:26;98070.50;;;5.63;73.41
42519;BME280;28147;47.520;18.920;2023-02-04T03:11:52;98048.34;;;5.64;72.83
42519;BME280;28147;47.520;18.920;2023-02-04T03:14:18;98053.41;;;6.67;84.60
42519;BME280;28147;47.520;18.920;2023-02-04T03:16:44;98063.56;;;6.45;72.44
42519;BME280;28147;47.520;18.920;2023-02-04T03:19:11;98066.81;;;6.40;71.11
42519;BME280;28147;47.520;18.920;2023-02-04T03:21:37;98060.00;;;5.94;72.01
42519;BME280;28147;47.520;18.920;2023-02-04T03:24:03;98052.16;;;5.74;72.89
42519;BME280;28147;47.520;18.920;2023-02-04T03:26:29;98055.91;;;5.98;72.33
42519;BME280;28147;47.520;18.920;2023-02-04T03:28:54;98043.16;;;5.95;72.11
42519;BME280;28147;47.520;18.920;2023-02-04T03:31:20;98034.59;;;5.48;74.01
42519;BME280;28147;47.520;18.920;2023-02-04T03:33:46;98035.50;;;5.74;73.62
42519;BME280;28147;47.520;18.920;2023-02-04T03:36:11;98018.78;;;5.48;74.63
42519;BME280;28147;47.520;18.920;2023-02-04T03:38:37;98031.13;;;5.54;74.86
42519;BME280;28147;47.520;18.920;2023-02-04T03:41:03;98008.84;;;5.44;75.53
42519;BME280;28147;47.520;18.920;2023-02-04T03:43:28;98015.31;;;5.48;76.19
42519;BME280;28147;47.520;18.920;2023-02-04T03:45:54;98008.44;;;5.47;76.49
42519;BME280;28147;47.520;18.920;2023-02-04T03:48:19;97999.97;;;5.31;77.20
42519;BME280;28147;47.520;18.920;2023-02-04T03:50:45;98012.09;;;5.46;77.52
42519;BME280;28147;47.520;18.920;2023-02-04T03:53:10;98001.56;;;5.39;77.89
42519;BME280;28147;47.520;18.920;2023-02-04T03:55:36;98006.53;;;5.60;77.06
42519;BME280;28147;47.520;18.920;2023-02-04T03:58:02;98006.22;;;5.44;77.32
42519;BME280;28147;47.520;18.920;2023-02-04T04:00:28;98002.34;;;5.46;77.34
42519;BME280;28147;47.520;18.920;2023-02-04T04:02:54;97998.38;;;5.69;77.01
42519;BME280;28147;47.520;18.920;2023-02-04T04:05:19;97982.41;;;5.57;77.56
42519;BME280;28147;47.520;18.920;2023-02-04T04:07:45;97992.09;;;5.18;78.64
42519;BME280;28147;47.520;18.920;2023-02-04T04:10:11;97988.81;;;5.29;77.86
42519;BME280;28147;47.520;18.920;2023-02-04T04:12:36;97993.19;;;5.49;77.51
42519;BME280;28147;47.520;18.920;2023-02-04T04:15:02;97983.75;;;5.28;78.07
42519;BME280;28147;47.520;18.920;2023-02-04T04:17:27;97997.72;;;5.35;78.12
42519;BME280;28147;47.520;18.920;2023-02-04T04:19:53;97995.91;;;5.35;77.28
42519;BME280;28147;47.520;18.920;2023-02-04T04:22:18;97998.81;;;5.59;77.41
42519;BME280;28147;47.520;18.920;2023-02-04T04:24:44;97986.13;;;5.43;76.81
42519;BME280;28147;47.520;18.920;2023-02-04T04:27:09;97983.94;;;5.26;77.15
42519;BME280;28147;47.520;18.920;2023-02-04T04:29:35;97987.69;;;5.57;76.06
42519;BME280;28147;47.520;18.920;2023-02-04T04:32:00;97987.63;;;5.64;75.02
42519;BME280;28147;47.520;18.920;2023-02-04T04:34:26;97978.06;;;5.69;74.29
42519;BME280;28147;47.520;18.920;2023-02-04T04:36:51;97975.22;;;5.64;74.58
42519;BME280;28147;47.520;18.920;2023-02-04T04:39:16;97965.38;;;5.46;74.39
42519;BME280;28147;47.520;18.920;2023-02-04T04:41:42;97967.56;;;5.56;73.60
42519;BME280;28147;47.520;18.920;2023-02-04T04:44:07;97971.28;;;5.42;73.81
42519;BME280;28147;47.520;18.920;2023-02-04T04:46:32;97980.81;;;5.49;73.44
42519;BME280;28147;47.520;18.920;2023-02-04T04:48:58;97974.41;;;5.64;72.93
42519;BME280;28147;47.520;18.920;2023-02-04T04:51:23;97973.06;;;5.54;73.03
42519;BME280;28147;47.520;18.920;2023-02-04T04:53:49;97975.19;;;5.71;72.75
42519;BME280;28147;47.520;18.920;2023-02-04T04:56:14;97953.00;;;5.47;73.45
42519;BME280;28147;47.520;18.920;2023-02-04T04:58:39;97960.03;;;5.59;73.06
42519;BME280;28147;47.520;18.920;2023-02-04T05:01:05;97957.91;;;5.75;72.37
42519;BME280;28147;47.520;18.920;2023-02-04T05:03:30;97947.03;;;5.58;71.74
42519;BME280;28147;47.520;18.920;2023-02-04T05:05:56;97951.25;;;5.66;71.32
42519;BME280;28147;47.520;18.920;2023-02-04T05:08:21;97946.81;;;5.59;71.81
42519;BME280;28147;47.520;18.920;2023-02-04T05:10:47;97942.91;;;5.69;71.28
42519;BME280;28147;47.520;18.920;2023-02-04T05:13:12;97935.06;;;5.55;71.54
42519;BME280;28147;47.520;18.920;2023-02-04T05:15:38;97936.06;;;5.61;71.41
42519;BME280;28147;47.520;18.920;2023-02-04T05:18:03;97939.94;;;5.58;71.72
42519;BME280;28147;47.520;18.920;2023-02-04T05:20:29;97923.56;;;5.75;70.90
42519;BME280;28147;47.520;18.920;2023-02-04T05:22:54;97935.81;;;5.69;71.51
42519;BME280;28147;47.520;18.920;2023-02-04T05:25:21;97924.63;;;5.67;71.55
42519;BME280;28147;47.520;18.920;2023-02-04T05:27:47;97918.69;;;5.47;71.94
42519;BME280;28147;47.520;18.920;2023-02-04T05:30:14;97906.16;;;5.67;71.38
42519;BME280;28147;47.520;18.920;2023-02-04T05:32:40;97922.22;;;5.66;71.93
42519;BME280;28147;47.520;18.920;2023-02-04T05:35:06;97930.56;;;5.63;72.79
42519;BME280;28147;47.520;18.920;2023-02-04T05:37:31;97946.94;;;5.71;73.89
42519;BME280;28147;47.520;18.920;2023-02-04T05:39:57;97938.19;;;5.46;76.00
42519;BME280;28147;47.520;18.920;2023-02-04T05:42:22;97938.41;;;5.37;77.59
42519;BME280;28147;47.520;18.920;2023-02-04T05:44:48;97934.81;;;5.25;77.60
42519;BME280;28147;47.520;18.920;2023-02-04T05:47:14;97929.56;;;5.19;77.52
42519;BME280;28147;47.520;18.920;2023-02-04T05:49:39;97948.91;;;5.06;77.68
42519;BME280;28147;47.520;18.920;2023-02-04T05:52:05;97958.44;;;5.07;77.66
42519;BME280;28147;47.520;18.920;2023-02-04T05:54:30;97948.75;;;4.94;76.45
42519;BME280;28147;47.520;18.920;2023-02-04T05:56:56;97963.97;;;4.92;75.91
42519;BME280;28147;47.520;18.920;2023-02-04T05:59:21;97927.00;;;5.05;74.16
42519;BME280;28147;47.520;18.920;2023-02-04T06:01:47;97967.63;;;4.91;73.54
42519;BME280;28147;47.520;18.920;2023-02-04T06:04:12;97961.78;;;4.89;72.75
42519;BME280;28147;47.520;18.920;2023-02-04T06:06:40;97964.59;;;4.87;72.53
42519;BME280;28147;47.520;18.920;2023-02-04T06:09:06;97975.16;;;4.81;72.30
42519;BME280;28147;47.520;18.920;2023-02-04T06:11:31;97945.38;;;4.74;71.98
42519;BME280;28147;47.520;18.920;2023-02-04T06:13:56;97984.09;;;4.86;71.78
42519;BME280;28147;47.520;18.920;2023-02-04T06:16:22;97986.56;;;4.68;71.35
42519;BME280;28147;47.520;18.920;2023-02-04T06:18:48;97982.13;;;4.55;71.58
42519;BME280;28147;47.520;18.920;2023-02-04T06:21:13;98005.22;;;4.53;72.30
42519;BME280;28147;47.520;18.920;2023-02-04T06:23:39;97988.59;;;4.59;72.18
42519;BME280;28147;47.520;18.920;2023-02-04T06:26:04;98016.94;;;4.84;71.27
42519;BME280;28147;47.520;18.920;2023-02-04T06:28:29;97993.84;;;4.73;70.46
42519;BME280;28147;47.520;18.920;2023-02-04T06:30:55;97996.72;;;4.51;70.74
42519;BME280;28147;47.520;18.920;2023-02-04T06:33:20;98018.19;;;4.75;70.21
42519;BME280;28147;47.520;18.920;2023-02-04T06:35:48;98036.88;;;4.60;70.55
42519;BME280;28147;47.520;18.920;2023-02-04T06:38:14;98013.94;;;4.60;70.43
42519;BME280;28147;47.520;18.920;2023-02-04T06:40:39;98021.84;;;4.60;70.00
42519;BME280;28147;47.520;18.920;2023-02-04T06:43:05;98034.78;;;4.88;69.17
42519;BME280;28147;47.520;18.920;2023-02-04T06:45:30;98020.22;;;4.73;69.11
42519;BME280;28147;47.520;18.920;2023-02-04T06:47:56;98019.41;;;4.66;68.92
42519;BME280;28147;47.520;18.920;2023-02-04T06:50:21;98027.09;;;4.80;67.61
42519;BME280;28147;47.520;18.920;2023-02-04T06:52:47;98018.63;;;4.58;67.08
42519;BME280;28147;47.520;18.920;2023-02-04T06:55:13;98039.50;;;4.53;67.46
42519;BME280;28147;47.520;18.920;2023-02-04T06:57:39;98037.47;;;4.55;67.17
42519;BME280;28147;47.520;18.920;2023-02-04T07:00:06;98039.91;;;4.57;67.28
42519;BME280;28147;47.520;18.920;2023-02-04T07:02:32;98054.28;;;4.34;67.89
42519;BME280;28147;47.520;18.920;2023-02-04T07:04:57;98040.50;;;4.46;67.44
42519;BME280;28147;47.520;18.920;2023-02-04T07:07:25;98038.28;;;4.62;67.34
42519;BME280;28147;47.520;18.920;2023-02-04T07:09:50;98030.81;;;4.39;67.38
42519;BME280;28147;47.520;18.920;2023-02-04T07:12:16;98039.09;;;4.30;67.62
42519;BME280;28147;47.520;18.920;2023-02-04T07:14:41;98046.19;;;4.36;66.84
42519;BME280;28147;47.520;18.920;2023-02-04T07:17:07;98036.22;;;4.11;65.90
42519;BME280;28147;47.520;18.920;2023-02-04T07:19:32;98045.94;;;4.04;66.27
42519;BME280;28147;47.520;18.920;2023-02-04T07:21:59;98054.06;;;4.09;65.88
42519;BME280;28147;47.520;18.920;2023-02-04T07:24:24;98086.69;;;4.02;66.64
42519;BME280;28147;47.520;18.920;2023-02-04T07:26:50;98080.63;;;4.14;65.88
42519;BME280;28147;47.520;18.920;2023-02-04T07:29:16;98091.38;;;4.13;65.87
42519;BME280;28147;47.520;18.920;2023-02-04T07:31:43;98078.13;;;3.93;65.44
42519;BME280;28147;47.520;18.920;2023-02-04T07:34:13;98074.06;;;3.84;66.01
42519;BME280;28147;47.520;18.920;2023-02-04T07:36:39;98073.53;;;4.15;65.06
42519;BME280;28147;47.520;18.920;2023-02-04T07:39:08;98099.50;;;4.25;64.33
42519;BME280;28147;47.520;18.920;2023-02-04T07:41:34;98106.53;;;4.04;63.87
42519;BME280;28147;47.520;18.920;2023-02-04T07:43:59;98105.75;;;4.17;63.77
42519;BME280;28147;47.520;18.920;2023-02-04T07:46:25;98121.53;;;4.10;62.80
42519;BME280;28147;47.520;18.920;2023-02-04T07:48:50;98120.78;;;4.50;60.70
42519;BME280;28147;47.520;18.920;2023-02-04T07:51:16;98141.09;;;4.69;59.98
42519;BME280;28147;47.520;18.920;2023-02-04T07:53:41;98131.34;;;4.96;59.15
42519;BME280;28147;47.520;18.920;2023-02-04T07:56:07;98159.38;;;4.97;58.32
42519;BME280;28147;47.520;18.920;2023-02-04T07:58:32;98145.56;;;4.95;57.95
42519;BME280;28147;47.520;18.920;2023-02-04T08:00:57;98150.22;;;4.80;58.95
42519;BME280;28147;47.520;18.920;2023-02-04T08:03:23;98166.25;;;4.72;58.89
42519;BME280;28147;47.520;18.920;2023-02-04T08:05:48;98161.78;;;4.59;58.85
42519;BME280;28147;47.520;18.920;2023-02-04T08:08:14;98164.13;;;4.27;59.43
42519;BME280;28147;47.520;18.920;2023-02-04T08:10:41;98186.22;;;4.26;59.49
42519;BME280;28147;47.520;18.920;2023-02-04T08:13:06;98173.38;;;4.03;60.16
42519;BME280;28147;47.520;18.920;2023-02-04T08:15:32;98194.94;;;4.27;59.81
42519;BME280;28147;47.520;18.920;2023-02-04T08:17:57;98185.28;;;4.47;59.60
42519;BME280;28147;47.520;18.920;2023-02-04T08:20:22;98194.56;;;4.43;59.16
42519;BME280;28147;47.520;18.920;2023-02-04T08:22:48;98178.47;;;4.11;59.48
42519;BME280;28147;47.520;18.920;2023-02-04T08:25:13;98195.22;;;3.90;59.93
42519;BME280;28147;47.520;18.920;2023-02-04T08:27:39;98211.34;;;3.81;59.86
42519;BME280;28147;47.520;18.920;2023-02-04T08:30:05;98237.78;;;3.94;59.78
42519;BME280;28147;47.520;18.920;2023-02-04T08:32:30;98202.00;;;3.72;60.02
42519;BME280;28147;47.520;18.920;2023-02-04T08:34:57;98230.47;;;3.96;59.05
42519;BME280;28147;47.520;18.920;2023-02-04T08:37:23;98202.81;;;3.79;59.70
42519;BME280;28147;47.520;18.920;2023-02-04T08:39:48;98219.63;;;3.78;59.49
42519;BME280;28147;47.520;18.920;2023-02-04T08:42:14;98202.03;;;3.78;59.43
42519;BME280;28147;47.520;18.920;2023-02-04T08:44:40;98226.78;;;3.49;60.47
42519;BME280;28147;47.520;18.920;2023-02-04T08:47:06;98244.88;;;3.65;60.31
42519;BME280;28147;47.520;18.920;2023-02-04T08:52:10;98259.81;;;3.58;59.69
42519;BME280;28147;47.520;18.920;2023-02-04T08:54:35;98275.03;;;3.91;58.70
42519;BME280;28147;47.520;18.920;2023-02-04T08:57:01;98277.03;;;3.89;58.12
42519;BME280;28147;47.520;18.920;2023-02-04T08:59:27;98266.31;;;3.90;58.36
42519;BME280;28147;47.520;18.920;2023-02-04T09:01:52;98284.84;;;4.10;57.04
42519;BME280;28147;47.520;18.920;2023-02-04T09:04:19;98303.22;;;4.32;56.93
42519;BME280;28147;47.520;18.920;2023-02-04T09:06:45;98278.44;;;4.94;55.54
42519;BME280;28147;47.520;18.920;2023-02-04T09:09:12;98285.50;;;4.80;54.90
42519;BME280;28147;47.520;18.920;2023-02-04T09:11:37;98287.03;;;5.36;53.70
42519;BME280;28147;47.520;18.920;2023-02-04T09:14:03;98318.09;;;5.74;52.67
42519;BME280;28147;47.520;18.920;2023-02-04T09:16:28;98329.25;;;5.89;52.64
42519;BME280;28147;47.520;18.920;2023-02-04T09:18:54;98328.03;;;5.78;52.55
42519;BME280;28147;47.520;18.920;2023-02-04T09:21:20;98335.97;;;6.12;51.58
42519;BME280;28147;47.520;18.920;2023-02-04T09:23:45;98346.81;;;6.55;50.94
42519;BME280;28147;47.520;18.920;2023-02-04T09:26:11;98348.63;;;6.68;50.75
42519;BME280;28147;47.520;18.920;2023-02-04T09:28:37;98382.69;;;6.31;50.70
42519;BME280;28147;47.520;18.920;2023-02-04T09:31:03;98361.19;;;6.01;50.89
42519;BME280;28147;47.520;18.920;2023-02-04T09:33:30;98385.84;;;6.66;49.85
42519;BME280;28147;47.520;18.920;2023-02-04T09:35:56;98380.22;;;6.43;48.83
42519;BME280;28147;47.520;18.920;2023-02-04T09:38:21;98402.63;;;6.14;50.29
42519;BME280;28147;47.520;18.920;2023-02-04T09:40:50;98410.97;;;6.37;49.70
42519;BME280;28147;47.520;18.920;2023-02-04T09:43:22;98412.19;;;6.99;49.19
42519;BME280;28147;47.520;18.920;2023-02-04T09:45:50;98397.84;;;6.75;49.69
42519;BME280;28147;47.520;18.920;2023-02-04T09:48:15;98405.53;;;6.83;48.71
42519;BME280;28147;47.520;18.920;2023-02-04T09:50:41;98434.31;;;7.12;48.34
42519;BME280;28147;47.520;18.920;2023-02-04T09:53:12;98444.59;;;6.81;49.04
42519;BME280;28147;47.520;18.920;2023-02-04T09:55:40;98456.72;;;6.31;49.91
42519;BME280;28147;47.520;18.920;2023-02-04T09:58:15;98473.19;;;5.32;51.62
42519;BME280;28147;47.520;18.920;2023-02-04T10:00:51;98489.72;;;5.54;51.92
42519;BME280;28147;47.520;18.920;2023-02-04T10:03:21;98497.13;;;5.24;51.84
42519;BME280;28147;47.520;18.920;2023-02-04T10:05:48;98514.59;;;5.25;52.65
42519;BME280;28147;47.520;18.920;2023-02-04T10:08:16;98527.31;;;5.15;53.05
42519;BME280;28147;47.520;18.920;2023-02-04T10:10:44;98528.16;;;5.22;52.41
42519;BME280;28147;47.520;18.920;2023-02-04T10:13:19;98530.00;;;5.21;52.28
42519;BME280;28147;47.520;18.920;2023-02-04T10:15:46;98554.38;;;5.30;51.97
42519;BME280;28147;47.520;18.920;2023-02-04T10:18:25;98540.66;;;5.06;52.19
42519;BME280;28147;47.520;18.920;2023-02-04T10:21:23;98551.88;;;5.15;51.69
42519;BME280;28147;47.520;18.920;2023-02-04T10:23:54;98561.66;;;4.86;52.46
42519;BME280;28147;47.520;18.920;2023-02-04T10:26:21;98578.72;;;4.91;53.03
42519;BME280;28147;47.520;18.920;2023-02-04T10:28:47;98595.75;;;4.88;53.20
42519;BME280;28147;47.520;18.920;2023-02-04T10:31:47;98598.22;;;4.96;53.47
42519;BME280;28147;47.520;18.920;2023-02-04T10:34:18;98602.91;;;4.94;54.41
42519;BME280;28147;47.520;18.920;2023-02-04T10:39:19;98610.25;;;4.49;53.87
42519;BME280;28147;47.520;18.920;2023-02-04T10:41:56;98648.03;;;4.56;54.47
42519;BME280;28147;47.520;18.920;2023-02-04T10:49:57;98695.66;;;4.98;54.07
42519;BME280;28147;47.520;18.920;2023-02-04T10:52:35;98704.50;;;5.11;52.76
42519;BME280;28147;47.520;18.920;2023-02-04T10:55:04;98717.13;;;4.73;53.38
42519;BME280;28147;47.520;18.920;2023-02-04T10:57:30;98729.44;;;4.87;52.56
42519;BME280;28147;47.520;18.920;2023-02-04T11:00:01;98737.66;;;4.99;52.96
42519;BME280;28147;47.520;18.920;2023-02-04T11:07:44;98773.06;;;4.69;51.63
42519;BME280;28147;47.520;18.920;2023-02-04T11:10:16;98792.44;;;5.19;50.59
42519;BME280;28147;47.520;18.920;2023-02-04T11:12:45;98788.41;;;4.58;51.03
42519;BME280;28147;47.520;18.920;2023-02-04T11:15:44;98791.84;;;4.59;50.63
42519;BME280;28147;47.520;18.920;2023-02-04T11:20:48;98813.00;;;4.66;49.58
42519;BME280;28147;47.520;18.920;2023-02-04T11:23:30;98828.75;;;4.95;50.05
42519;BME280;28147;47.520;18.920;2023-02-04T11:34:09;98827.44;;;5.98;45.58
42519;BME280;28147;47.520;18.920;2023-02-04T11:39:37;98849.97;;;6.64;43.48
42519;BME280;28147;47.520;18.920;2023-02-04T11:42:16;98860.81;;;6.75;43.55
42519;BME280;28147;47.520;18.920;2023-02-04T11:44:51;98864.63;;;6.60;43.94
42519;BME280;28147;47.520;18.920;2023-02-04T11:47:17;98867.53;;;6.78;44.26
42519;BME280;28147;47.520;18.920;2023-02-04T11:49:45;98863.75;;;6.94;45.02
42519;BME280;28147;47.520;18.920;2023-02-04T11:52:16;98880.75;;;7.46;44.66
42519;BME280;28147;47.520;18.920;2023-02-04T11:54:51;98898.00;;;7.15;46.15
42519;BME280;28147;47.520;18.920;2023-02-04T11:57:17;98901.53;;;6.81;46.08
42519;BME280;28147;47.520;18.920;2023-02-04T11:59:42;98885.44;;;6.06;47.36
42519;BME280;28147;47.520;18.920;2023-02-04T12:02:22;98908.06;;;6.16;47.03
42519;BME280;28147;47.520;18.920;2023-02-04T12:07:22;98902.13;;;6.07;46.32
42519;BME280;28147;47.520;18.920;2023-02-04T12:09:48;98916.94;;;5.86;46.87
42519;BME280;28147;47.520;18.920;2023-02-04T12:12:23;98917.84;;;6.50;46.31
42519;BME280;28147;47.520;18.920;2023-02-04T12:14:56;98926.31;;;6.39;46.74
42519;BME280;28147;47.520;18.920;2023-02-04T12:17:21;98917.09;;;6.28;46.57
42519;BME280;28147;47.520;18.920;2023-02-04T12:19:47;98921.31;;;6.50;46.01
42519;BME280;28147;47.520;18.920;2023-02-04T12:22:12;98933.63;;;6.08;46.86
42519;BME280;28147;47.520;18.920;2023-02-04T12:24:40;98942.50;;;6.22;46.96
42519;BME280;28147;47.520;18.920;2023-02-04T12:27:05;98931.97;;;5.86;46.97
42519;BME280;28147;47.520;18.920;2023-02-04T12:29:30;98944.66;;;5.69;47.14
42519;BME280;28147;47.520;18.920;2023-02-04T12:31:56;98962.81;;;5.79;46.97
42519;BME280;28147;47.520;18.920;2023-02-04T12:34:21;98960.22;;;5.43;46.63
42519;BME280;28147;47.520;18.920;2023-02-04T12:36:47;98967.34;;;5.85;46.41
42519;BME280;28147;47.520;18.920;2023-02-04T12:39:12;98950.38;;;5.73;45.95
42519;BME280;28147;47.520;18.920;2023-02-04T12:41:37;98947.69;;;5.15;47.14
42519;BME280;28147;47.520;18.920;2023-02-04T12:44:03;98946.28;;;5.34;46.38
42519;BME280;28147;47.520;18.920;2023-02-04T12:46:29;98963.81;;;5.20;45.95
42519;BME280;28147;47.520;18.920;2023-02-04T12:48:55;98977.53;;;5.30;45.61
42519;BME280;28147;47.520;18.920;2023-02-04T12:51:20;98978.19;;;5.18;46.18
42519;BME280;28147;47.520;18.920;2023-02-04T12:53:46;98987.88;;;5.47;44.81
42519;BME280;28147;47.520;18.920;2023-02-04T12:56:13;99013.88;;;5.65;45.53
42519;BME280;28147;47.520;18.920;2023-02-04T12:58:38;98988.75;;;5.18;44.95
42519;BME280;28147;47.520;18.920;2023-02-04T13:01:04;99014.97;;;5.04;46.14
42519;BME280;28147;47.520;18.920;2023-02-04T13:03:29;99016.34;;;5.00;45.55
42519;BME280;28147;47.520;18.920;2023-02-04T13:05:55;99037.25;;;5.02;45.99
42519;BME280;28147;47.520;18.920;2023-02-04T13:08:20;99009.34;;;4.78;48.65
42519;BME280;28147;47.520;18.920;2023-02-04T13:10:46;99037.63;;;5.13;48.31
42519;BME280;28147;47.520;18.920;2023-02-04T13:13:18;99027.50;;;4.87;48.87
42519;BME280;28147;47.520;18.920;2023-02-04T13:15:44;99029.16;;;5.03;48.33
42519;BME280;28147;47.520;18.920;2023-02-04T13:18:10;99038.97;;;4.80;48.34
42519;BME280;28147;47.520;18.920;2023-02-04T13:20:36;99046.91;;;5.09;48.40
42519;BME280;28147;47.520;18.920;2023-02-04T13:23:01;99053.28;;;5.00;48.14
42519;BME280;28147;47.520;18.920;2023-02-04T13:25:27;99044.69;;;4.83;48.38
42519;BME280;28147;47.520;18.920;2023-02-04T13:27:52;99063.44;;;4.88;46.10
42519;BME280;28147;47.520;18.920;2023-02-04T13:30:18;99049.56;;;4.57;45.48